sensor_id;sensor_type;location;lat;lon;timestamp;temperature;humidity
31675;DHT22;18276;45.520;11.018;2022-12-18T00:01:31;6.60;99.90
31675;DHT22;18276;45.520;11.018;2022-12-18T00:04:04;6.60;99.90
31675;DHT22;18276;45.520;11.018;2022-12-18T00:06:32;6.60;99.90
31675;DHT22;18276;45.520;11.018;2022-12-18T00:09:00;6.70;99.90
31675;DHT22;18276;45.520;11.018;2022-12-18T00:11:29;6.70;99.90
31675;DHT22;18276;45.520;11.018;2022-12-18T00:13:58;6.70;99.90
31675;DHT22;18276;45.520;11.018;2022-12-18T00:16:27;6.70;99.90
31675;DHT22;18276;45.520;11.018;2022-12-18T00:18:57;6.70;99.90
31675;DHT22;18276;45.520;11.018;2022-12-18T00:21:24;6.70;99.90
31675;DHT22;18276;45.520;11.018;2022-12-18T00:23:51;6.70;99.90
31675;DHT22;18276;45.520;11.018;2022-12-18T00:26:30;6.70;99.90
31675;DHT22;18276;45.520;11.018;2022-12-18T00:29:11;6.70;99.90
31675;DHT22;18276;45.520;11.018;2022-12-18T00:31:42;6.70;99.90
31675;DHT22;18276;45.520;11.018;2022-12-18T00:34:11;6.70;99.90
31675;DHT22;18276;45.520;11.018;2022-12-18T00:36:40;6.70;99.90
31675;DHT22;18276;45.520;11.018;2022-12-18T00:39:08;6.70;99.90
31675;DHT22;18276;45.520;11.018;2022-12-18T00:41:35;6.70;99.90
31675;DHT22;18276;45.520;11.018;2022-12-18T00:44:37;6.70;99.90
31675;DHT22;18276;45.520;11.018;2022-12-18T00:47:04;6.60;99.90
31675;DHT22;18276;45.520;11.018;2022-12-18T00:49:31;6.70;99.90
31675;DHT22;18276;45.520;11.018;2022-12-18T00:51:58;6.70;99.90
31675;DHT22;18276;45.520;11.018;2022-12-18T00:54:25;6.70;99.90
31675;DHT22;18276;45.520;11.018;2022-12-18T00:56:52;6.70;99.90
31675;DHT22;18276;45.520;11.018;2022-12-18T00:59:19;6.70;99.90
31675;DHT22;18276;45.520;11.018;2022-12-18T01:01:47;6.60;99.90
31675;DHT22;18276;45.520;11.018;2022-12-18T01:04:15;6.60;99.90
31675;DHT22;18276;45.520;11.018;2022-12-18T01:06:45;6.60;99.90
31675;DHT22;18276;45.520;11.018;2022-12-18T01:09:12;6.60;99.90
31675;DHT22;18276;45.520;11.018;2022-12-18T01:11:39;6.60;99.90
31675;DHT22;18276;45.520;11.018;2022-12-18T01:14:07;6.60;99.90
31675;DHT22;18276;45.520;11.018;2022-12-18T01:16:36;6.60;99.90
31675;DHT22;18276;45.520;11.018;2022-12-18T01:19:04;6.60;99.90
31675;DHT22;18276;45.520;11.018;2022-12-18T01:21:32;6.70;99.90
31675;DHT22;18276;45.520;11.018;2022-12-18T01:24:03;6.70;99.90
31675;DHT22;18276;45.520;11.018;2022-12-18T01:26:30;6.70;99.90
31675;DHT22;18276;45.520;11.018;2022-12-18T01:28:58;6.70;99.90
31675;DHT22;18276;45.520;11.018;2022-12-18T01:31:30;6.70;99.90
31675;DHT22;18276;45.520;11.018;2022-12-18T01:34:00;6.80;99.90
31675;DHT22;18276;45.520;11.018;2022-12-18T01:36:31;6.80;99.90
31675;DHT22;18276;45.520;11.018;2022-12-18T01:39:00;6.80;99.90
31675;DHT22;18276;45.520;11.018;2022-12-18T01:41:29;6.80;99.90
31675;DHT22;18276;45.520;11.018;2022-12-18T01:49:54;6.90;99.90
31675;DHT22;18276;45.520;11.018;2022-12-18T01:52:24;6.90;99.90
31675;DHT22;18276;45.520;11.018;2022-12-18T01:54:53;7.00;99.90
31675;DHT22;18276;45.520;11.018;2022-12-18T01:57:20;7.00;99.90
31675;DHT22;18276;45.520;11.018;2022-12-18T01:59:51;7.00;99.90
31675;DHT22;18276;45.520;11.018;2022-12-18T02:02:20;7.00;99.90
31675;DHT22;18276;45.520;11.018;2022-12-18T02:04:48;7.00;99.90
31675;DHT22;18276;45.520;11.018;2022-12-18T02:07:22;7.00;99.90
31675;DHT22;18276;45.520;11.018;2022-12-18T02:13:13;7.00;99.90
31675;DHT22;18276;45.520;11.018;2022-12-18T02:15:55;7.00;99.90
31675;DHT22;18276;45.520;11.018;2022-12-18T02:18:29;7.00;99.90
31675;DHT22;18276;45.520;11.018;2022-12-18T02:23:56;7.00;99.90
31675;DHT22;18276;45.520;11.018;2022-12-18T02:26:37;7.00;99.90
31675;DHT22;18276;45.520;11.018;2022-12-18T02:29:08;7.00;99.90
31675;DHT22;18276;45.520;11.018;2022-12-18T02:31:49;7.00;99.90
31675;DHT22;18276;45.520;11.018;2022-12-18T02:34:20;7.00;99.90
31675;DHT22;18276;45.520;11.018;2022-12-18T02:36:49;7.00;99.90
31675;DHT22;18276;45.520;11.018;2022-12-18T02:39:19;7.00;99.90
31675;DHT22;18276;45.520;11.018;2022-12-18T02:41:58;7.00;99.90
31675;DHT22;18276;45.520;11.018;2022-12-18T02:44:26;7.00;99.90
31675;DHT22;18276;45.520;11.018;2022-12-18T02:46:55;7.00;99.90
31675;DHT22;18276;45.520;11.018;2022-12-18T03:00:43;6.90;99.90
31675;DHT22;18276;45.520;11.018;2022-12-18T03:03:34;6.90;99.90
31675;DHT22;18276;45.520;11.018;2022-12-18T03:06:10;7.00;99.90
31675;DHT22;18276;45.520;11.018;2022-12-18T03:08:46;6.90;99.90
31675;DHT22;18276;45.520;11.018;2022-12-18T03:11:16;6.90;99.90
31675;DHT22;18276;45.520;11.018;2022-12-18T03:14:06;6.90;99.90
31675;DHT22;18276;45.520;11.018;2022-12-18T03:16:34;6.90;99.90
31675;DHT22;18276;45.520;11.018;2022-12-18T03:19:08;6.90;99.90
31675;DHT22;18276;45.520;11.018;2022-12-18T03:21:43;6.90;99.90
31675;DHT22;18276;45.520;11.018;2022-12-18T03:24:14;6.90;99.90
31675;DHT22;18276;45.520;11.018;2022-12-18T03:26:44;6.90;99.90
31675;DHT22;18276;45.520;11.018;2022-12-18T03:29:37;6.90;99.90
31675;DHT22;18276;45.520;11.018;2022-12-18T03:32:09;6.90;99.90
31675;DHT22;18276;45.520;11.018;2022-12-18T03:34:39;6.90;99.90
31675;DHT22;18276;45.520;11.018;2022-12-18T03:37:10;6.90;99.90
31675;DHT22;18276;45.520;11.018;2022-12-18T03:39:37;6.90;99.90
31675;DHT22;18276;45.520;11.018;2022-12-18T03:42:17;6.90;99.90
31675;DHT22;18276;45.520;11.018;2022-12-18T03:45:43;6.90;99.90
31675;DHT22;18276;45.520;11.018;2022-12-18T03:51:09;6.90;99.90
31675;DHT22;18276;45.520;11.018;2022-12-18T03:53:50;6.90;99.90
31675;DHT22;18276;45.520;11.018;2022-12-18T03:56:25;6.90;99.90
31675;DHT22;18276;45.520;11.018;2022-12-18T03:58:55;6.80;99.90
31675;DHT22;18276;45.520;11.018;2022-12-18T04:01:30;6.90;99.90
31675;DHT22;18276;45.520;11.018;2022-12-18T04:04:00;6.90;99.90
31675;DHT22;18276;45.520;11.018;2022-12-18T04:06:32;6.80;99.90
31675;DHT22;18276;45.520;11.018;2022-12-18T04:09:00;6.80;99.90
31675;DHT22;18276;45.520;11.018;2022-12-18T04:11:30;6.80;99.90
31675;DHT22;18276;45.520;11.018;2022-12-18T04:13:58;6.80;99.90
31675;DHT22;18276;45.520;11.018;2022-12-18T04:16:30;6.90;99.90
31675;DHT22;18276;45.520;11.018;2022-12-18T04:19:01;6.80;99.90
31675;DHT22;18276;45.520;11.018;2022-12-18T04:21:34;6.80;99.90
31675;DHT22;18276;45.520;11.018;2022-12-18T04:24:01;6.80;99.90
31675;DHT22;18276;45.520;11.018;2022-12-18T04:26:29;6.80;99.90
31675;DHT22;18276;45.520;11.018;2022-12-18T04:29:17;6.80;99.90
31675;DHT22;18276;45.520;11.018;2022-12-18T04:31:44;6.80;99.90
31675;DHT22;18276;45.520;11.018;2022-12-18T04:34:11;6.80;99.90
31675;DHT22;18276;45.520;11.018;2022-12-18T04:36:45;6.80;99.90
31675;DHT22;18276;45.520;11.018;2022-12-18T04:39:13;6.80;99.90
31675;DHT22;18276;45.520;11.018;2022-12-18T04:41:40;6.80;99.90
31675;DHT22;18276;45.520;11.018;2022-12-18T04:44:09;6.80;99.90
31675;DHT22;18276;45.520;11.018;2022-12-18T04:46:36;6.80;99.90
31675;DHT22;18276;45.520;11.018;2022-12-18T04:49:03;6.80;99.90
31675;DHT22;18276;45.520;11.018;2022-12-18T04:51:30;6.80;99.90
31675;DHT22;18276;45.520;11.018;2022-12-18T04:53:57;6.80;99.90
31675;DHT22;18276;45.520;11.018;2022-12-18T04:56:24;6.80;99.90
31675;DHT22;18276;45.520;11.018;2022-12-18T04:58:51;6.80;99.90
31675;DHT22;18276;45.520;11.018;2022-12-18T05:01:18;6.80;99.90
31675;DHT22;18276;45.520;11.018;2022-12-18T05:03:45;6.80;99.90
31675;DHT22;18276;45.520;11.018;2022-12-18T05:06:12;6.80;99.90
31675;DHT22;18276;45.520;11.018;2022-12-18T05:08:39;6.80;99.90
31675;DHT22;18276;45.520;11.018;2022-12-18T05:11:09;6.80;99.90
31675;DHT22;18276;45.520;11.018;2022-12-18T05:13:37;6.80;99.90
31675;DHT22;18276;45.520;11.018;2022-12-18T05:16:06;6.80;99.90
31675;DHT22;18276;45.520;11.018;2022-12-18T05:18:33;6.80;99.90
31675;DHT22;18276;45.520;11.018;2022-12-18T05:21:01;6.80;99.90
31675;DHT22;18276;45.520;11.018;2022-12-18T05:23:29;6.70;99.90
31675;DHT22;18276;45.520;11.018;2022-12-18T05:25:59;6.80;99.90
31675;DHT22;18276;45.520;11.018;2022-12-18T05:28:28;6.70;99.90
31675;DHT22;18276;45.520;11.018;2022-12-18T05:30:58;6.70;99.90
31675;DHT22;18276;45.520;11.018;2022-12-18T05:33:27;6.70;99.90
31675;DHT22;18276;45.520;11.018;2022-12-18T05:35:57;6.70;99.90
31675;DHT22;18276;45.520;11.018;2022-12-18T05:38:26;6.70;99.90
31675;DHT22;18276;45.520;11.018;2022-12-18T05:40:54;6.70;99.90
31675;DHT22;18276;45.520;11.018;2022-12-18T05:43:22;6.70;99.90
31675;DHT22;18276;45.520;11.018;2022-12-18T05:45:49;6.70;99.90
31675;DHT22;18276;45.520;11.018;2022-12-18T05:48:17;6.70;99.90
31675;DHT22;18276;45.520;11.018;2022-12-18T05:50:45;6.70;99.90
31675;DHT22;18276;45.520;11.018;2022-12-18T05:53:14;6.70;99.90
31675;DHT22;18276;45.520;11.018;2022-12-18T05:55:43;6.70;99.90
31675;DHT22;18276;45.520;11.018;2022-12-18T05:58:11;6.70;99.90
31675;DHT22;18276;45.520;11.018;2022-12-18T06:00:40;6.70;99.90
31675;DHT22;18276;45.520;11.018;2022-12-18T06:03:09;6.70;99.90
31675;DHT22;18276;45.520;11.018;2022-12-18T06:05:38;6.70;99.90
31675;DHT22;18276;45.520;11.018;2022-12-18T06:08:06;6.70;99.90
31675;DHT22;18276;45.520;11.018;2022-12-18T06:10:33;6.70;99.90
31675;DHT22;18276;45.520;11.018;2022-12-18T06:13:01;6.70;99.90
31675;DHT22;18276;45.520;11.018;2022-12-18T06:15:28;6.70;99.90
31675;DHT22;18276;45.520;11.018;2022-12-18T06:17:55;6.70;99.90
31675;DHT22;18276;45.520;11.018;2022-12-18T06:20:22;6.70;99.90
31675;DHT22;18276;45.520;11.018;2022-12-18T06:22:52;6.60;99.90
31675;DHT22;18276;45.520;11.018;2022-12-18T06:25:19;6.60;99.90
31675;DHT22;18276;45.520;11.018;2022-12-18T06:27:47;6.60;99.90
31675;DHT22;18276;45.520;11.018;2022-12-18T06:30:14;6.60;99.90
31675;DHT22;18276;45.520;11.018;2022-12-18T06:32:42;6.60;99.90
31675;DHT22;18276;45.520;11.018;2022-12-18T06:35:09;6.60;99.90
31675;DHT22;18276;45.520;11.018;2022-12-18T06:37:36;6.60;99.90
31675;DHT22;18276;45.520;11.018;2022-12-18T06:40:03;6.60;99.90
31675;DHT22;18276;45.520;11.018;2022-12-18T06:42:31;6.60;99.90
31675;DHT22;18276;45.520;11.018;2022-12-18T06:45:02;6.60;99.90
31675;DHT22;18276;45.520;11.018;2022-12-18T06:47:29;6.60;99.90
31675;DHT22;18276;45.520;11.018;2022-12-18T06:49:56;6.60;99.90
31675;DHT22;18276;45.520;11.018;2022-12-18T06:52:23;6.60;99.90
31675;DHT22;18276;45.520;11.018;2022-12-18T06:54:50;6.60;99.90
31675;DHT22;18276;45.520;11.018;2022-12-18T06:57:17;6.60;99.90
31675;DHT22;18276;45.520;11.018;2022-12-18T06:59:44;6.60;99.90
31675;DHT22;18276;45.520;11.018;2022-12-18T07:02:12;6.60;99.90
31675;DHT22;18276;45.520;11.018;2022-12-18T07:04:39;6.60;99.90
31675;DHT22;18276;45.520;11.018;2022-12-18T07:07:06;6.60;99.90
31675;DHT22;18276;45.520;11.018;2022-12-18T07:09:33;6.60;99.90
31675;DHT22;18276;45.520;11.018;2022-12-18T07:12:00;6.70;99.90
31675;DHT22;18276;45.520;11.018;2022-12-18T07:14:27;6.70;99.90
31675;DHT22;18276;45.520;11.018;2022-12-18T07:16:55;6.70;99.90
31675;DHT22;18276;45.520;11.018;2022-12-18T07:19:22;6.70;99.90
31675;DHT22;18276;45.520;11.018;2022-12-18T07:21:50;6.70;99.90
31675;DHT22;18276;45.520;11.018;2022-12-18T07:24:17;6.70;99.90
31675;DHT22;18276;45.520;11.018;2022-12-18T07:26:48;6.70;99.90
31675;DHT22;18276;45.520;11.018;2022-12-18T07:29:16;6.80;99.90
31675;DHT22;18276;45.520;11.018;2022-12-18T07:31:43;6.80;99.90
31675;DHT22;18276;45.520;11.018;2022-12-18T07:34:14;6.80;99.90
31675;DHT22;18276;45.520;11.018;2022-12-18T07:36:42;6.90;99.90
31675;DHT22;18276;45.520;11.018;2022-12-18T07:39:11;6.90;99.90
31675;DHT22;18276;45.520;11.018;2022-12-18T07:41:38;6.90;99.90
31675;DHT22;18276;45.520;11.018;2022-12-18T07:44:12;7.00;99.90
31675;DHT22;18276;45.520;11.018;2022-12-18T07:46:39;7.00;99.90
31675;DHT22;18276;45.520;11.018;2022-12-18T07:49:07;7.00;99.90
31675;DHT22;18276;45.520;11.018;2022-12-18T07:51:33;7.10;99.90
31675;DHT22;18276;45.520;11.018;2022-12-18T07:54:00;7.10;99.90
31675;DHT22;18276;45.520;11.018;2022-12-18T07:56:28;7.10;99.90
31675;DHT22;18276;45.520;11.018;2022-12-18T07:58:58;7.10;99.90
31675;DHT22;18276;45.520;11.018;2022-12-18T08:01:26;7.10;99.90
31675;DHT22;18276;45.520;11.018;2022-12-18T08:03:53;7.20;99.90
31675;DHT22;18276;45.520;11.018;2022-12-18T08:06:20;7.20;99.90
31675;DHT22;18276;45.520;11.018;2022-12-18T08:08:54;7.30;99.90
31675;DHT22;18276;45.520;11.018;2022-12-18T08:11:22;7.30;99.90
31675;DHT22;18276;45.520;11.018;2022-12-18T08:13:49;7.30;99.90
31675;DHT22;18276;45.520;11.018;2022-12-18T08:16:17;7.40;99.90
31675;DHT22;18276;45.520;11.018;2022-12-18T08:18:45;7.40;99.90
31675;DHT22;18276;45.520;11.018;2022-12-18T08:21:13;7.50;99.90
31675;DHT22;18276;45.520;11.018;2022-12-18T08:23:41;7.50;99.90
31675;DHT22;18276;45.520;11.018;2022-12-18T08:26:13;7.50;99.90
31675;DHT22;18276;45.520;11.018;2022-12-18T08:28:40;7.60;99.90
31675;DHT22;18276;45.520;11.018;2022-12-18T08:31:08;7.60;99.90
31675;DHT22;18276;45.520;11.018;2022-12-18T08:33:36;7.60;99.90
31675;DHT22;18276;45.520;11.018;2022-12-18T08:36:05;7.70;99.90
31675;DHT22;18276;45.520;11.018;2022-12-18T08:38:33;7.70;99.90
31675;DHT22;18276;45.520;11.018;2022-12-18T08:41:01;7.80;99.90
31675;DHT22;18276;45.520;11.018;2022-12-18T08:43:28;7.90;99.90
31675;DHT22;18276;45.520;11.018;2022-12-18T08:46:14;7.90;99.90
31675;DHT22;18276;45.520;11.018;2022-12-18T08:48:41;8.00;99.90
31675;DHT22;18276;45.520;11.018;2022-12-18T08:51:08;8.00;99.90
31675;DHT22;18276;45.520;11.018;2022-12-18T08:53:38;8.10;99.90
31675;DHT22;18276;45.520;11.018;2022-12-18T08:56:06;8.10;99.90
31675;DHT22;18276;45.520;11.018;2022-12-18T08:58:33;8.20;99.90
31675;DHT22;18276;45.520;11.018;2022-12-18T09:01:06;8.20;99.90
31675;DHT22;18276;45.520;11.018;2022-12-18T09:03:34;8.20;99.90
31675;DHT22;18276;45.520;11.018;2022-12-18T09:06:01;8.30;99.90
31675;DHT22;18276;45.520;11.018;2022-12-18T09:08:29;8.40;99.90
31675;DHT22;18276;45.520;11.018;2022-12-18T09:10:56;8.50;99.90
31675;DHT22;18276;45.520;11.018;2022-12-18T09:13:23;8.70;99.80
31675;DHT22;18276;45.520;11.018;2022-12-18T09:15:53;8.90;98.50
31675;DHT22;18276;45.520;11.018;2022-12-18T09:18:22;9.20;97.30
31675;DHT22;18276;45.520;11.018;2022-12-18T09:20:49;9.40;95.90
31675;DHT22;18276;45.520;11.018;2022-12-18T09:23:20;9.60;95.00
31675;DHT22;18276;45.520;11.018;2022-12-18T09:25:48;9.50;94.20
31675;DHT22;18276;45.520;11.018;2022-12-18T09:28:17;9.30;93.90
31675;DHT22;18276;45.520;11.018;2022-12-18T09:30:46;9.20;93.60
31675;DHT22;18276;45.520;11.018;2022-12-18T09:33:14;9.10;92.90
31675;DHT22;18276;45.520;11.018;2022-12-18T09:35:43;8.90;92.80
31675;DHT22;18276;45.520;11.018;2022-12-18T09:38:13;8.90;93.00
31675;DHT22;18276;45.520;11.018;2022-12-18T09:40:43;9.00;92.90
31675;DHT22;18276;45.520;11.018;2022-12-18T09:43:26;9.10;92.70
31675;DHT22;18276;45.520;11.018;2022-12-18T09:46:02;9.40;92.20
31675;DHT22;18276;45.520;11.018;2022-12-18T09:48:44;9.70;90.90
31675;DHT22;18276;45.520;11.018;2022-12-18T09:51:16;10.10;90.10
31675;DHT22;18276;45.520;11.018;2022-12-18T09:53:51;10.50;87.60
31675;DHT22;18276;45.520;11.018;2022-12-18T09:56:19;11.10;87.70
31675;DHT22;18276;45.520;11.018;2022-12-18T10:01:24;12.80;82.20
31675;DHT22;18276;45.520;11.018;2022-12-18T10:04:01;13.00;79.20
31675;DHT22;18276;45.520;11.018;2022-12-18T10:09:22;12.50;76.80
31675;DHT22;18276;45.520;11.018;2022-12-18T10:17:26;12.40;76.60
31675;DHT22;18276;45.520;11.018;2022-12-18T10:22:50;12.20;74.00
31675;DHT22;18276;45.520;11.018;2022-12-18T10:28:16;12.70;74.00
31675;DHT22;18276;45.520;11.018;2022-12-18T10:30:44;12.80;72.90
31675;DHT22;18276;45.520;11.018;2022-12-18T10:33:14;13.00;72.20
31675;DHT22;18276;45.520;11.018;2022-12-18T10:35:43;13.50;70.90
31675;DHT22;18276;45.520;11.018;2022-12-18T10:41:02;13.70;68.00
31675;DHT22;18276;45.520;11.018;2022-12-18T10:43:32;14.00;68.40
31675;DHT22;18276;45.520;11.018;2022-12-18T10:48:30;14.90;66.10
31675;DHT22;18276;45.520;11.018;2022-12-18T10:50:58;15.10;63.80
31675;DHT22;18276;45.520;11.018;2022-12-18T10:53:40;15.30;62.50
31675;DHT22;18276;45.520;11.018;2022-12-18T10:56:07;15.40;61.90
31675;DHT22;18276;45.520;11.018;2022-12-18T10:58:37;15.70;62.50
31675;DHT22;18276;45.520;11.018;2022-12-18T11:01:16;16.40;60.30
31675;DHT22;18276;45.520;11.018;2022-12-18T11:03:45;16.70;58.00
31675;DHT22;18276;45.520;11.018;2022-12-18T11:06:16;16.80;56.70
31675;DHT22;18276;45.520;11.018;2022-12-18T11:08:44;17.00;56.00
31675;DHT22;18276;45.520;11.018;2022-12-18T11:11:24;17.00;56.50
31675;DHT22;18276;45.520;11.018;2022-12-18T11:16:58;17.50;55.40
31675;DHT22;18276;45.520;11.018;2022-12-18T11:19:53;17.80;55.90
31675;DHT22;18276;45.520;11.018;2022-12-18T11:22:35;18.20;54.70
31675;DHT22;18276;45.520;11.018;2022-12-18T11:25:18;18.20;52.90
31675;DHT22;18276;45.520;11.018;2022-12-18T11:28:02;17.90;53.70
31675;DHT22;18276;45.520;11.018;2022-12-18T11:30:34;17.80;54.50
31675;DHT22;18276;45.520;11.018;2022-12-18T11:38:20;18.70;52.70
31675;DHT22;18276;45.520;11.018;2022-12-18T11:40:58;18.80;51.30
31675;DHT22;18276;45.520;11.018;2022-12-18T11:46:29;19.40;50.40
31675;DHT22;18276;45.520;11.018;2022-12-18T11:49:06;19.80;50.30
31675;DHT22;18276;45.520;11.018;2022-12-18T11:51:43;19.90;49.20
31675;DHT22;18276;45.520;11.018;2022-12-18T11:54:14;20.10;48.40
31675;DHT22;18276;45.520;11.018;2022-12-18T12:02:38;20.20;47.80
31675;DHT22;18276;45.520;11.018;2022-12-18T12:05:31;20.00;48.10
31675;DHT22;18276;45.520;11.018;2022-12-18T12:10:57;19.70;48.70
31675;DHT22;18276;45.520;11.018;2022-12-18T12:16:26;20.40;49.00
31675;DHT22;18276;45.520;11.018;2022-12-18T12:32:53;21.30;46.40
31675;DHT22;18276;45.520;11.018;2022-12-18T12:38:40;21.00;46.80
31675;DHT22;18276;45.520;11.018;2022-12-18T12:41:03;20.90;47.10
31675;DHT22;18276;45.520;11.018;2022-12-18T12:46:08;20.00;47.90
31675;DHT22;18276;45.520;11.018;2022-12-18T12:48:50;19.90;48.20
31675;DHT22;18276;45.520;11.018;2022-12-18T12:51:24;19.70;48.10
31675;DHT22;18276;45.520;11.018;2022-12-18T12:53:54;19.30;48.90
31675;DHT22;18276;45.520;11.018;2022-12-18T12:56:29;18.90;49.70
31675;DHT22;18276;45.520;11.018;2022-12-18T12:59:22;18.30;50.80
31675;DHT22;18276;45.520;11.018;2022-12-18T13:05:02;18.00;52.50
31675;DHT22;18276;45.520;11.018;2022-12-18T13:07:41;17.80;52.30
31675;DHT22;18276;45.520;11.018;2022-12-18T13:10:22;17.30;53.30
31675;DHT22;18276;45.520;11.018;2022-12-18T13:13:12;16.90;54.50
31675;DHT22;18276;45.520;11.018;2022-12-18T13:16:07;16.50;55.10
31675;DHT22;18276;45.520;11.018;2022-12-18T13:18:35;16.40;55.80
31675;DHT22;18276;45.520;11.018;2022-12-18T13:21:17;16.20;56.20
31675;DHT22;18276;45.520;11.018;2022-12-18T13:23:45;15.90;57.00
31675;DHT22;18276;45.520;11.018;2022-12-18T13:31:13;15.60;57.80
31675;DHT22;18276;45.520;11.018;2022-12-18T13:33:45;15.40;58.20
31675;DHT22;18276;45.520;11.018;2022-12-18T13:36:33;15.30;58.10
31675;DHT22;18276;45.520;11.018;2022-12-18T13:44:41;14.70;58.50
31675;DHT22;18276;45.520;11.018;2022-12-18T13:47:27;14.40;58.80
31675;DHT22;18276;45.520;11.018;2022-12-18T13:49:57;14.30;59.20
31675;DHT22;18276;45.520;11.018;2022-12-18T13:52:27;14.20;59.60
31675;DHT22;18276;45.520;11.018;2022-12-18T13:54:57;14.30;59.40
31675;DHT22;18276;45.520;11.018;2022-12-18T13:57:34;14.30;60.00
31675;DHT22;18276;45.520;11.018;2022-12-18T14:00:28;14.40;60.30
31675;DHT22;18276;45.520;11.018;2022-12-18T14:02:56;14.30;58.40
31675;DHT22;18276;45.520;11.018;2022-12-18T14:05:32;14.00;58.00
31675;DHT22;18276;45.520;11.018;2022-12-18T14:08:05;13.90;58.70
31675;DHT22;18276;45.520;11.018;2022-12-18T14:10:35;13.70;58.90
31675;DHT22;18276;45.520;11.018;2022-12-18T14:13:26;13.60;59.40
31675;DHT22;18276;45.520;11.018;2022-12-18T14:15:55;13.60;59.70
31675;DHT22;18276;45.520;11.018;2022-12-18T14:18:50;13.50;59.50
31675;DHT22;18276;45.520;11.018;2022-12-18T14:21:27;13.40;59.30
31675;DHT22;18276;45.520;11.018;2022-12-18T14:26:35;13.30;58.70
31675;DHT22;18276;45.520;11.018;2022-12-18T14:29:22;12.90;58.60
31675;DHT22;18276;45.520;11.018;2022-12-18T14:32:09;12.50;58.90
31675;DHT22;18276;45.520;11.018;2022-12-18T14:34:51;12.00;60.40
31675;DHT22;18276;45.520;11.018;2022-12-18T14:37:25;11.60;61.40
31675;DHT22;18276;45.520;11.018;2022-12-18T14:40:00;11.30;63.20
31675;DHT22;18276;45.520;11.018;2022-12-18T14:42:37;10.90;64.40
31675;DHT22;18276;45.520;11.018;2022-12-18T14:45:36;10.60;64.70
31675;DHT22;18276;45.520;11.018;2022-12-18T14:48:16;10.30;65.20
31675;DHT22;18276;45.520;11.018;2022-12-18T14:51:13;10.00;66.10
31675;DHT22;18276;45.520;11.018;2022-12-18T14:53:43;9.90;67.20
31675;DHT22;18276;45.520;11.018;2022-12-18T14:56:25;9.70;67.70
31675;DHT22;18276;45.520;11.018;2022-12-18T15:04:00;9.30;71.00
31675;DHT22;18276;45.520;11.018;2022-12-18T15:06:36;9.20;71.60
31675;DHT22;18276;45.520;11.018;2022-12-18T15:09:19;9.00;72.40
31675;DHT22;18276;45.520;11.018;2022-12-18T15:11:47;8.90;73.00
31675;DHT22;18276;45.520;11.018;2022-12-18T15:14:40;8.70;73.40
31675;DHT22;18276;45.520;11.018;2022-12-18T15:17:23;8.50;74.40
31675;DHT22;18276;45.520;11.018;2022-12-18T15:19:58;8.40;75.30
31675;DHT22;18276;45.520;11.018;2022-12-18T15:22:33;8.20;75.60
31675;DHT22;18276;45.520;11.018;2022-12-18T15:25:03;8.10;76.40
31675;DHT22;18276;45.520;11.018;2022-12-18T15:27:33;8.00;76.70
31675;DHT22;18276;45.520;11.018;2022-12-18T15:32:36;7.70;78.20
31675;DHT22;18276;45.520;11.018;2022-12-18T15:37:41;7.60;79.40
31675;DHT22;18276;45.520;11.018;2022-12-18T15:40:16;7.50;79.60
31675;DHT22;18276;45.520;11.018;2022-12-18T15:42:43;7.30;80.20
31675;DHT22;18276;45.520;11.018;2022-12-18T15:45:29;7.20;80.70
31675;DHT22;18276;45.520;11.018;2022-12-18T15:47:56;7.10;81.40
31675;DHT22;18276;45.520;11.018;2022-12-18T15:50:23;7.00;82.20
31675;DHT22;18276;45.520;11.018;2022-12-18T15:52:52;6.90;82.50
31675;DHT22;18276;45.520;11.018;2022-12-18T15:55:23;6.80;82.70
31675;DHT22;18276;45.520;11.018;2022-12-18T15:58:10;6.70;83.10
31675;DHT22;18276;45.520;11.018;2022-12-18T16:00:39;6.50;83.40
31675;DHT22;18276;45.520;11.018;2022-12-18T16:03:08;6.40;83.80
31675;DHT22;18276;45.520;11.018;2022-12-18T16:05:36;6.30;84.20
31675;DHT22;18276;45.520;11.018;2022-12-18T16:08:03;6.20;84.60
31675;DHT22;18276;45.520;11.018;2022-12-18T16:10:30;6.10;85.00
31675;DHT22;18276;45.520;11.018;2022-12-18T16:12:57;6.00;85.30
31675;DHT22;18276;45.520;11.018;2022-12-18T16:15:24;5.90;85.70
31675;DHT22;18276;45.520;11.018;2022-12-18T16:17:51;5.80;86.10
31675;DHT22;18276;45.520;11.018;2022-12-18T16:20:22;5.80;86.60
31675;DHT22;18276;45.520;11.018;2022-12-18T16:22:49;5.70;87.00
31675;DHT22;18276;45.520;11.018;2022-12-18T16:25:25;5.70;87.30
31675;DHT22;18276;45.520;11.018;2022-12-18T16:27:53;5.70;87.80
31675;DHT22;18276;45.520;11.018;2022-12-18T16:30:27;5.60;87.70
31675;DHT22;18276;45.520;11.018;2022-12-18T16:33:04;5.60;88.10
31675;DHT22;18276;45.520;11.018;2022-12-18T16:35:33;5.50;88.20
31675;DHT22;18276;45.520;11.018;2022-12-18T16:38:00;5.50;88.50
31675;DHT22;18276;45.520;11.018;2022-12-18T16:40:27;5.50;88.90
31675;DHT22;18276;45.520;11.018;2022-12-18T16:42:54;5.40;89.20
31675;DHT22;18276;45.520;11.018;2022-12-18T16:45:21;5.40;89.60
31675;DHT22;18276;45.520;11.018;2022-12-18T16:47:48;5.30;89.90
31675;DHT22;18276;45.520;11.018;2022-12-18T16:50:16;5.30;90.10
31675;DHT22;18276;45.520;11.018;2022-12-18T16:52:43;5.40;90.20
31675;DHT22;18276;45.520;11.018;2022-12-18T16:55:10;5.30;90.30
31675;DHT22;18276;45.520;11.018;2022-12-18T16:57:37;5.30;90.50
31675;DHT22;18276;45.520;11.018;2022-12-18T17:00:04;5.30;90.60
31675;DHT22;18276;45.520;11.018;2022-12-18T17:02:32;5.30;90.70
31675;DHT22;18276;45.520;11.018;2022-12-18T17:04:59;5.30;90.90
31675;DHT22;18276;45.520;11.018;2022-12-18T17:07:27;5.20;91.00
31675;DHT22;18276;45.520;11.018;2022-12-18T17:09:54;5.20;91.10
31675;DHT22;18276;45.520;11.018;2022-12-18T17:12:22;5.20;91.20
31675;DHT22;18276;45.520;11.018;2022-12-18T17:14:49;5.20;91.40
31675;DHT22;18276;45.520;11.018;2022-12-18T17:17:17;5.20;91.40
31675;DHT22;18276;45.520;11.018;2022-12-18T17:19:49;5.10;91.50
31675;DHT22;18276;45.520;11.018;2022-12-18T17:22:16;5.10;91.70
31675;DHT22;18276;45.520;11.018;2022-12-18T17:24:43;5.10;91.80
31675;DHT22;18276;45.520;11.018;2022-12-18T17:27:10;5.10;91.90
31675;DHT22;18276;45.520;11.018;2022-12-18T17:29:37;5.00;91.90
31675;DHT22;18276;45.520;11.018;2022-12-18T17:32:12;5.00;92.10
31675;DHT22;18276;45.520;11.018;2022-12-18T17:34:39;5.00;92.30
31675;DHT22;18276;45.520;11.018;2022-12-18T17:37:07;4.90;92.30
31675;DHT22;18276;45.520;11.018;2022-12-18T17:39:34;4.90;92.50
31675;DHT22;18276;45.520;11.018;2022-12-18T17:42:01;4.80;92.60
31675;DHT22;18276;45.520;11.018;2022-12-18T17:44:28;4.80;92.60
31675;DHT22;18276;45.520;11.018;2022-12-18T17:46:55;4.80;92.80
31675;DHT22;18276;45.520;11.018;2022-12-18T17:49:22;4.80;92.80
31675;DHT22;18276;45.520;11.018;2022-12-18T17:51:49;4.80;92.90